Morgantown Municipal Walter L. Bill Hart Field
KMGW : now visible

Airfield :











YOU CAN JOIN US ON...

 
LOGIN :

Register | Disclaimer

   EN    FR    IT 

 









Legend :    VFR   Marginal VFR   IFR   Intensive IFR   Very Intensive IFR
Visi :
Ceiling :
>= 8 km
>= 3000ft
5 to 8 km
1000 to 3000 ft
1500m to 5 km
500 to 1000 ft
800 to 1500m
200 to 500 ft
< 800m
< 200 ft
Symbols :   Thunderstorms  Fog  Heavy snow  Heavy precipitations  Wind > 20 kt






- Airport Elevation : 1248 ft
- IATA code : MGW


KMGW - Morgantown Municipal Walter L. Bill Hart Field

CURRENT METAR :
  • 271353Z 03003KT 10SM OVC007 09/07 A3026 RMK AO2 SLP250 T00890067

EXPIRED METARs :
  • 271312Z 36005KT 10SM OVC006 08/07 A3025 RMK AO2 CIG 004V007 T00830067
  • 271253Z 03003KT 10SM BKN004 BKN009 OVC080 08/07 A3025 RMK AO2 SLP245 T00830067
  • 271240Z 36004KT 10SM FEW004 BKN009 OVC080 08/07 A3025 RMK AO2 T00830072
  • 271153Z 33003KT 10SM BKN038 OVC070 08/07 A3025 RMK AO2 SLP247 70002 T00830067 10100 20083 53005

TAF KMGW
Valid from the 27 at 12:00 until the 28 at 12:00 UTC


271132Z 2712/2812 00000KT P6SM SCT025 OVC060
TEMPO 2713/2717 BKN025
FM271700 32003KT P6SM SCT025 OVC050
FM280200 VRB02KT P6SM VCSH OVC025
FM280700 VRB02KT 6SM BR VCSH OVC008
KZOB FIR / North America



MET'MAP, your aeronautical weather chart ! - Copyright ORBIFLY December 2007 - Disclaimer

ORBIFLY MET'MAP TEAM :

Programming & Development : Alexandra Zaïnal
Concept & original design : Baudouin d'Aumeries
Assistance for programming : Marc-Olivier Méhu
Technical & hardware support : Manuel Goepfert

Contact : metmap@orbifly.com




SOURCES & CREDITS :

   NOAA       Earth
Advisory